< < Back
Terminal Aerodrome Forecast


Current Version              Previous Versions:   1  2  3  4  5  6  7  8  9  

Terminal Aerodrome Forecast

680
FTUS42 KMLB 301138
TAFMCO
TAF
KMCO 301138Z 3012/3112 06006KT P6SM FEW015 BKN150 OVC250
     FM301400 14009KT P6SM VCSH SCT020 BKN035 OVC060
     FM301800 14011KT 6SM -RA VCTS BKN030CB OVC100
      TEMPO 3018/3022 3SM TSRA BKN020CB OVC050
     FM310100 13006KT P6SM VCSH SCT020 BKN050 OVC250=



Latest METAR

781
SAUS70 KWBC 301400 RRG
MTRMCO
METAR KMCO 301353Z 14007KT 10SM FEW025 SCT100 BKN160 OVC250 28/26 A3002
RMK AO2 RAB28E39 SLP165 P0000 T02780256 $


USA.gov is the U.S. government's official web portal to all federal, state and local government web resources and services.